Terminal Aerodrome Forecast
Issued by NWS

Home | Current Version | Previous Version | Text Only | Print | Product List | Glossary On
Versions: 1 2 3 4 5 6 7 8 9 10 11 12 13 14 15 16
947
FTUS43 KLSX 070520
TAFCPS
TAF
KCPS 070520Z 0706/0806 22010KT P6SM BKN250
     FM071800 27014KT P6SM BKN100
     FM072000 29018G28KT P6SM SCT050 OVC100
     FM080200 29013KT P6SM SCT050 OVC100=

USA.gov is the U.S. government's official web portal to all federal, state and local government web resources and services.